Time;durP1;ratioP1;P1;durP2;ratioP2;P2;SDS_P1;SDS_P2;PMS_P1;PMS_P2;Temp;Humidity;BMP_temperature;BMP_pressure;BME280_temperature;BME280_humidity;BME280_pressure;Samples;Min_cycle;Max_cycle;Signal;HPM_P1;HPM_P2
2023/09/16 00:00:14;;;;;;;7.20;6.50;;;17.50;99.90;;;;;;5073643;28;20186;-73
2023/09/16 00:02:39;;;;;;;7.10;6.17;;;17.50;99.90;;;;;;5072995;28;20180;-73
2023/09/16 00:05:05;;;;;;;11.20;6.10;;;17.60;99.90;;;;;;5073387;28;20616;-72
2023/09/16 00:07:31;;;;;;;8.10;6.20;;;17.50;99.90;;;;;;5073418;28;20263;-73
2023/09/16 00:09:57;;;;;;;8.97;6.53;;;17.40;99.90;;;;;;5073039;28;20310;-71
2023/09/16 00:12:24;;;;;;;7.03;6.33;;;17.40;99.90;;;;;;5073255;28;20192;-73
2023/09/16 00:14:50;;;;;;;9.97;6.90;;;17.30;99.90;;;;;;5073137;28;20219;-73
2023/09/16 00:17:16;;;;;;;8.07;5.80;;;17.30;99.90;;;;;;5073384;28;20542;-73
2023/09/16 00:19:41;;;;;;;7.27;6.57;;;17.30;99.90;;;;;;5073082;28;20342;-73
2023/09/16 00:22:10;;;;;;;7.40;5.97;;;17.30;99.90;;;;;;5073089;28;20187;-73
2023/09/16 00:24:36;;;;;;;6.70;6.07;;;17.30;99.90;;;;;;5072826;28;20238;-73
2023/09/16 00:27:02;;;;;;;7.83;6.10;;;17.20;99.90;;;;;;5072898;28;20215;-73
2023/09/16 00:29:27;;;;;;;8.43;5.90;;;17.10;99.90;;;;;;5073115;28;20238;-73
2023/09/16 00:31:53;;;;;;;8.17;6.27;;;17.10;99.90;;;;;;5073192;28;20176;-74
2023/09/16 00:34:19;;;;;;;7.03;5.87;;;17.00;99.90;;;;;;5073041;28;20668;-72
2023/09/16 00:36:44;;;;;;;6.93;5.60;;;17.00;99.90;;;;;;5071648;28;20517;-72
2023/09/16 00:39:10;;;;;;;8.43;6.63;;;16.90;99.90;;;;;;5072820;28;20655;-72
2023/09/16 00:41:36;;;;;;;6.70;6.00;;;16.80;99.90;;;;;;5072944;28;20212;-72
2023/09/16 00:44:01;;;;;;;7.57;6.10;;;16.80;99.90;;;;;;5072975;28;20165;-72
2023/09/16 00:46:27;;;;;;;9.23;6.07;;;16.80;99.90;;;;;;5072975;28;20534;-72
2023/09/16 00:48:53;;;;;;;11.97;6.77;;;16.70;99.90;;;;;;5073001;28;20644;-72
2023/09/16 00:51:19;;;;;;;8.30;6.40;;;16.80;99.90;;;;;;5072897;28;20172;-72
2023/09/16 00:53:45;;;;;;;10.73;6.50;;;16.80;99.90;;;;;;5072487;28;20545;-72
2023/09/16 00:56:12;;;;;;;7.87;6.30;;;16.80;99.90;;;;;;5072790;28;20208;-72
2023/09/16 00:58:38;;;;;;;7.67;6.40;;;16.70;99.90;;;;;;5072866;28;20176;-72
2023/09/16 01:01:03;;;;;;;6.53;5.93;;;16.60;99.90;;;;;;5072890;28;20536;-72
2023/09/16 01:03:29;;;;;;;10.87;6.97;;;16.60;99.90;;;;;;5072838;28;20636;-72
2023/09/16 01:05:55;;;;;;;7.23;6.27;;;16.60;99.90;;;;;;5072657;28;20168;-72
2023/09/16 01:08:22;;;;;;;9.83;6.73;;;16.50;99.90;;;;;;5072460;28;20161;-72
2023/09/16 01:10:48;;;;;;;7.07;6.33;;;16.50;99.90;;;;;;5072892;28;20222;-72
2023/09/16 01:13:14;;;;;;;7.73;6.37;;;16.60;99.90;;;;;;5073451;28;20177;-72
2023/09/16 01:15:51;;;;;;;7.27;6.57;;;16.60;99.90;;;;;;5076318;28;20679;-72
2023/09/16 01:18:30;;;;;;;8.03;7.23;;;16.60;99.90;;;;;;5076275;28;20259;-72
2023/09/16 01:20:58;;;;;;;8.67;6.63;;;16.60;99.90;;;;;;5075021;28;20192;-72
2023/09/16 01:23:23;;;;;;;7.47;6.40;;;16.60;99.90;;;;;;5076097;28;20173;-73
2023/09/16 01:25:49;;;;;;;7.07;6.43;;;16.50;99.90;;;;;;5076186;28;20594;-73
2023/09/16 01:28:15;;;;;;;8.20;6.57;;;16.50;99.90;;;;;;5076051;28;20177;-73
2023/09/16 01:30:47;;;;;;;10.13;7.27;;;16.50;99.90;;;;;;5076195;28;20251;-73
2023/09/16 01:33:18;;;;;;;7.17;6.50;;;16.60;99.90;;;;;;5076253;28;20264;-73
2023/09/16 01:35:47;;;;;;;7.97;6.50;;;16.60;99.90;;;;;;5076049;28;20234;-73
2023/09/16 01:38:15;;;;;;;7.17;6.47;;;16.50;99.90;;;;;;5075663;28;20694;-73
2023/09/16 01:40:43;;;;;;;7.33;6.50;;;16.50;99.90;;;;;;5076000;28;20167;-73
2023/09/16 01:43:09;;;;;;;7.33;6.37;;;16.50;99.90;;;;;;5075843;28;20169;-72
2023/09/16 01:45:44;;;;;;;8.17;6.57;;;16.50;99.90;;;;;;5075763;28;20527;-73
2023/09/16 01:48:11;;;;;;;8.63;6.77;;;16.50;99.90;;;;;;5075896;28;20176;-72
2023/09/16 01:50:37;;;;;;;10.33;7.37;;;16.50;99.90;;;;;;5075610;28;20233;-73
2023/09/16 01:53:06;;;;;;;11.10;7.50;;;16.50;99.90;;;;;;5075755;28;20629;-73
2023/09/16 01:55:32;;;;;;;11.17;6.80;;;16.50;99.90;;;;;;5075622;28;20205;-72
2023/09/16 01:57:58;;;;;;;6.90;6.30;;;16.40;99.90;;;;;;5075527;28;20673;-73
2023/09/16 02:00:24;;;;;;;9.07;7.23;;;16.40;99.90;;;;;;5075912;28;20252;-73
2023/09/16 02:02:50;;;;;;;8.83;6.30;;;16.30;99.90;;;;;;5075568;28;20173;-72
2023/09/16 02:05:16;;;;;;;8.30;7.07;;;16.40;99.90;;;;;;5075177;28;20187;-73
2023/09/16 02:07:42;;;;;;;8.93;7.17;;;16.30;99.90;;;;;;5075503;28;20671;-72
2023/09/16 02:10:09;;;;;;;10.30;6.13;;;16.30;99.90;;;;;;5075443;28;20177;-72
2023/09/16 02:12:36;;;;;;;9.13;6.53;;;16.30;99.90;;;;;;5075185;28;20637;-72
2023/09/16 02:15:04;;;;;;;8.77;6.30;;;16.20;99.90;;;;;;5075424;28;20220;-72
2023/09/16 02:17:30;;;;;;;9.00;7.20;;;16.20;99.90;;;;;;5075553;28;20172;-72
2023/09/16 02:19:55;;;;;;;8.60;7.30;;;16.30;99.90;;;;;;5074910;28;20224;-73
2023/09/16 02:22:21;;;;;;;9.03;7.50;;;16.30;99.90;;;;;;5075226;28;20168;-73
2023/09/16 02:24:48;;;;;;;10.63;7.33;;;16.30;99.90;;;;;;5074938;28;20703;-73
2023/09/16 02:27:13;;;;;;;8.67;6.87;;;16.20;99.90;;;;;;5074899;28;20200;-72
2023/09/16 02:29:39;;;;;;;7.53;6.83;;;16.30;99.90;;;;;;5075301;28;20528;-72
2023/09/16 02:32:05;;;;;;;8.77;7.50;;;16.20;99.90;;;;;;5075172;28;20185;-73
2023/09/16 02:34:33;;;;;;;8.90;6.70;;;16.20;99.90;;;;;;5074770;28;20212;-73
2023/09/16 02:36:59;;;;;;;8.43;7.40;;;16.20;99.90;;;;;;5075019;28;20184;-72
2023/09/16 02:39:25;;;;;;;9.67;6.90;;;16.10;99.90;;;;;;5074689;28;20176;-73
2023/09/16 02:41:51;;;;;;;7.60;6.83;;;16.10;99.90;;;;;;5074709;28;20176;-71
2023/09/16 02:44:16;;;;;;;8.63;6.80;;;16.10;99.90;;;;;;5074968;28;20173;-72
2023/09/16 02:46:42;;;;;;;8.13;6.97;;;16.00;99.90;;;;;;5074682;28;20271;-73
2023/09/16 02:49:07;;;;;;;9.73;6.73;;;16.00;99.90;;;;;;5074601;28;20173;-72
2023/09/16 02:51:33;;;;;;;7.33;6.73;;;16.00;99.90;;;;;;5074622;28;20216;-72
2023/09/16 02:54:00;;;;;;;9.30;7.17;;;16.00;99.90;;;;;;5074693;28;20172;-72
2023/09/16 02:56:25;;;;;;;9.80;7.27;;;16.00;99.90;;;;;;5074435;28;20172;-72
2023/09/16 02:58:53;;;;;;;9.80;7.13;;;16.00;99.90;;;;;;5074508;28;20165;-73
2023/09/16 03:01:18;;;;;;;12.80;8.07;;;16.00;99.90;;;;;;5074412;28;20180;-73
2023/09/16 03:03:44;;;;;;;11.67;7.70;;;16.00;99.90;;;;;;5074012;28;20244;-73
2023/09/16 03:06:10;;;;;;;9.80;7.23;;;16.00;99.90;;;;;;5074425;28;20187;-72
2023/09/16 03:08:35;;;;;;;9.37;7.63;;;15.90;99.90;;;;;;5074370;28;20180;-73
2023/09/16 03:11:05;;;;;;;17.33;7.53;;;15.90;99.90;;;;;;5072968;28;20568;-73
2023/09/16 03:13:31;;;;;;;11.13;7.80;;;15.80;99.90;;;;;;5074025;28;20694;-73
2023/09/16 03:16:15;;;;;;;13.77;7.40;;;15.80;99.90;;;;;;5074054;28;20236;-73
2023/09/16 03:18:45;;;;;;;10.70;7.70;;;15.90;99.90;;;;;;5073561;28;20169;-73
2023/09/16 03:21:11;;;;;;;18.60;7.90;;;15.80;99.90;;;;;;5073880;28;20184;-72
2023/09/16 03:23:37;;;;;;;15.90;7.93;;;15.80;99.90;;;;;;5072619;28;20176;-73
2023/09/16 03:26:02;;;;;;;21.33;8.63;;;15.80;99.90;;;;;;5073912;28;20231;-72
2023/09/16 03:28:28;;;;;;;19.23;8.70;;;15.80;99.90;;;;;;5073662;28;20176;-72
2023/09/16 03:30:53;;;;;;;13.40;8.10;;;15.80;99.90;;;;;;5074064;28;20181;-72
2023/09/16 03:33:19;;;;;;;17.83;8.73;;;15.80;99.90;;;;;;5072913;28;20514;-72
2023/09/16 03:35:44;;;;;;;17.27;7.93;;;15.80;99.90;;;;;;5072796;28;20299;-71
2023/09/16 03:38:10;;;;;;;14.43;8.27;;;15.70;99.90;;;;;;5073593;28;20247;-71
2023/09/16 03:40:36;;;;;;;12.90;8.57;;;15.70;99.90;;;;;;5073527;28;20565;-72
2023/09/16 03:43:02;;;;;;;16.57;8.23;;;15.70;99.90;;;;;;5073177;28;20627;-71
2023/09/16 03:45:28;;;;;;;15.67;8.93;;;15.70;99.90;;;;;;5073501;28;20624;-71
2023/09/16 03:47:53;;;;;;;14.57;8.70;;;15.70;99.90;;;;;;5073026;28;20179;-73
2023/09/16 03:50:19;;;;;;;12.03;8.13;;;15.80;99.90;;;;;;5073065;28;20567;-73
2023/09/16 03:52:45;;;;;;;9.90;7.43;;;15.70;99.90;;;;;;5073432;28;20247;-71
2023/09/16 03:55:11;;;;;;;8.97;7.60;;;15.70;99.90;;;;;;5073195;28;20216;-71
2023/09/16 03:57:36;;;;;;;9.07;7.50;;;15.70;99.90;;;;;;5073109;28;20569;-72
2023/09/16 04:00:06;;;;;;;8.33;7.50;;;15.70;99.90;;;;;;5073280;28;20176;-72
2023/09/16 04:02:32;;;;;;;10.03;7.30;;;15.60;99.90;;;;;;5072997;28;20246;-72
2023/09/16 04:04:58;;;;;;;10.67;7.60;;;15.60;99.90;;;;;;5072813;28;20267;-71
2023/09/16 04:07:23;;;;;;;11.20;8.30;;;15.60;99.90;;;;;;5073295;28;20161;-71
2023/09/16 04:09:49;;;;;;;9.17;7.17;;;15.60;99.90;;;;;;5073151;28;20251;-71
2023/09/16 04:12:15;;;;;;;11.93;7.33;;;15.50;99.90;;;;;;5072866;28;20164;-72
2023/09/16 04:14:40;;;;;;;11.80;7.93;;;15.60;99.90;;;;;;5073082;28;20197;-73
2023/09/16 04:17:06;;;;;;;8.60;7.67;;;15.60;99.90;;;;;;5072576;28;20533;-73
2023/09/16 04:19:32;;;;;;;9.90;7.97;;;15.70;99.90;;;;;;5072581;28;20227;-73
2023/09/16 04:21:57;;;;;;;12.57;8.50;;;15.60;99.90;;;;;;5072689;28;20177;-72
2023/09/16 04:24:23;;;;;;;8.67;7.83;;;15.60;99.90;;;;;;5073105;28;20187;-72
2023/09/16 04:26:48;;;;;;;11.77;7.83;;;15.60;99.90;;;;;;5072843;28;20197;-73
2023/09/16 04:29:14;;;;;;;11.07;7.83;;;15.60;99.90;;;;;;5071537;28;20515;-73
2023/09/16 04:31:40;;;;;;;9.27;8.10;;;15.60;99.90;;;;;;5072812;28;20169;-71
2023/09/16 04:34:05;;;;;;;12.93;7.90;;;15.60;99.90;;;;;;5072601;28;20175;-71
2023/09/16 04:36:31;;;;;;;8.93;7.70;;;15.50;99.90;;;;;;5071356;28;20284;-73
2023/09/16 04:38:57;;;;;;;11.37;8.17;;;15.40;99.90;;;;;;5073113;28;20179;-73
2023/09/16 04:41:24;;;;;;;9.37;7.33;;;15.40;99.90;;;;;;5072709;28;20216;-73
2023/09/16 04:43:49;;;;;;;9.33;8.10;;;15.40;99.90;;;;;;5072809;28;20161;-71
2023/09/16 04:46:18;;;;;;;11.97;8.00;;;15.40;99.90;;;;;;5072577;28;20672;-72
2023/09/16 04:48:47;;;;;;;10.33;8.20;;;15.40;99.90;;;;;;5075736;28;20168;-73
2023/09/16 04:51:13;;;;;;;13.70;7.87;;;15.30;99.90;;;;;;5076893;28;20190;-73
2023/09/16 04:53:39;;;;;;;8.47;7.57;;;15.30;99.90;;;;;;5076768;28;20165;-73
2023/09/16 04:56:10;;;;;;;14.77;8.20;;;15.30;99.90;;;;;;5076419;28;20220;-73
2023/09/16 04:58:36;;;;;;;9.53;7.70;;;15.30;99.90;;;;;;5075023;28;20255;-73
2023/09/16 05:01:05;;;;;;;10.60;8.27;;;15.30;99.90;;;;;;5076109;28;20251;-73
2023/09/16 05:03:32;;;;;;;12.40;9.03;;;15.30;99.90;;;;;;5076604;28;20179;-73
2023/09/16 05:05:57;;;;;;;10.37;8.30;;;15.40;99.90;;;;;;5076479;28;20188;-73
2023/09/16 05:08:23;;;;;;;8.87;7.97;;;15.40;99.90;;;;;;5076186;28;20211;-73
2023/09/16 05:10:55;;;;;;;10.67;8.37;;;15.40;99.90;;;;;;5076061;28;20164;-72
2023/09/16 05:13:22;;;;;;;11.47;8.13;;;15.40;99.90;;;;;;5075629;28;20278;-71
2023/09/16 05:15:49;;;;;;;13.33;8.20;;;15.40;99.90;;;;;;5075777;28;20208;-73
2023/09/16 05:18:15;;;;;;;8.50;7.10;;;15.40;99.90;;;;;;5076066;28;20327;-73
2023/09/16 05:20:41;;;;;;;9.47;8.10;;;15.40;99.90;;;;;;5075648;28;20231;-73
2023/09/16 05:23:07;;;;;;;9.13;8.17;;;15.50;99.90;;;;;;5075843;28;20173;-72
2023/09/16 05:25:32;;;;;;;11.60;8.50;;;15.50;99.90;;;;;;5076004;28;20643;-72
2023/09/16 05:27:58;;;;;;;11.63;8.27;;;15.60;99.90;;;;;;5075634;28;20168;-72
2023/09/16 05:30:23;;;;;;;9.60;8.07;;;15.60;99.90;;;;;;5076038;28;20176;-72
2023/09/16 05:32:49;;;;;;;8.73;7.83;;;15.70;99.90;;;;;;5075264;28;20318;-71
2023/09/16 05:35:15;;;;;;;13.37;8.37;;;15.80;99.90;;;;;;5075601;28;20208;-73
2023/09/16 05:37:40;;;;;;;10.87;8.43;;;15.90;99.90;;;;;;5075832;28;20172;-73
2023/09/16 05:40:06;;;;;;;10.43;8.20;;;16.30;99.90;;;;;;5075587;28;20187;-73
2023/09/16 05:42:32;;;;;;;10.17;7.87;;;16.60;99.90;;;;;;5073961;28;20173;-72
2023/09/16 05:45:00;;;;;;;9.83;8.17;;;16.90;99.90;;;;;;5074155;28;20588;-72
2023/09/16 05:47:31;;;;;;;7.90;7.17;;;17.50;99.90;;;;;;5075355;28;20165;-72
2023/09/16 05:49:57;;;;;;;8.97;7.77;;;17.70;99.90;;;;;;5075405;28;20179;-73
2023/09/16 05:52:23;;;;;;;9.60;7.43;;;18.00;99.90;;;;;;5074886;28;20211;-72
2023/09/16 05:54:49;;;;;;;8.80;7.40;;;18.40;99.90;;;;;;5075773;28;20204;-73
2023/09/16 05:57:14;;;;;;;8.68;7.30;;;18.60;73.20;;;;;;5074986;28;20176;-73
2023/09/16 05:59:40;;;;;;;9.57;7.20;;;19.00;55.80;;;;;;5074275;28;20172;-73
2023/09/16 06:02:05;;;;;;;11.70;7.30;;;19.20;42.50;;;;;;5075620;28;20176;-73
2023/09/16 06:04:31;;;;;;;7.75;6.95;;;19.50;42.80;;;;;;5075416;28;20232;-73
2023/09/16 06:06:57;;;;;;;13.10;7.95;;;19.60;32.70;;;;;;5074403;28;20172;-73
2023/09/16 06:09:22;;;;;;;12.77;7.75;;;19.40;31.10;;;;;;5075280;28;20468;-73
2023/09/16 06:11:48;;;;;;;11.32;7.68;;;19.70;33.60;;;;;;5074715;28;20169;-74
2023/09/16 06:14:13;;;;;;;10.48;7.60;;;20.00;25.20;;;;;;5075175;28;20176;-74
2023/09/16 06:16:39;;;;;;;11.35;8.15;;;20.30;17.90;;;;;;5074793;28;20180;-74
2023/09/16 06:19:05;;;;;;;10.15;7.95;;;20.50;8.30;;;;;;5074765;28;20613;-73
2023/09/16 06:21:30;;;;;;;10.75;8.25;;;20.40;5.20;;;;;;5074987;28;20165;-74
2023/09/16 06:23:57;;;;;;;9.32;7.70;;;20.40;9.40;;;;;;5074933;28;20168;-72
2023/09/16 06:26:23;;;;;;;13.13;8.52;;;20.40;4.50;;;;;;5074699;28;20640;-73
2023/09/16 06:28:49;;;;;;;11.40;8.38;;;20.50;7.50;;;;;;5074855;28;20183;-72
2023/09/16 06:31:14;;;;;;;13.50;8.57;;;20.80;3.10;;;;;;5074929;28;20690;-73
2023/09/16 06:33:40;;;;;;;9.88;8.30;;;21.40;1.00;;;;;;5074917;28;20643;-74
2023/09/16 06:36:06;;;;;;;12.45;7.70;;;21.70;1.00;;;;;;5074443;28;20300;-74
2023/09/16 06:38:31;;;;;;;10.00;8.35;;;22.00;1.00;;;;;;5074598;28;20173;-76
2023/09/16 06:40:57;;;;;;;9.85;7.53;;;22.60;1.00;;;;;;5073695;28;20206;-73
2023/09/16 06:43:23;;;;;;;10.80;9.23;;;22.80;1.00;;;;;;5074398;28;20171;-73
2023/09/16 06:45:49;;;;;;;9.02;8.15;;;23.00;1.00;;;;;;5074214;28;20608;-73
2023/09/16 06:48:15;;;;;;;9.30;8.45;;;23.00;1.00;;;;;;5074221;28;20268;-73
2023/09/16 06:50:42;;;;;;;9.45;8.45;;;23.10;1.00;;;;;;5074260;28;20264;-73
2023/09/16 06:53:08;;;;;;;10.60;8.02;;;23.40;1.00;;;;;;5074599;28;20176;-74
2023/09/16 06:55:34;;;;;;;11.80;8.50;;;23.90;1.00;;;;;;5073517;28;20204;-75
2023/09/16 06:58:04;;;;;;;12.27;8.38;;;24.40;1.00;;;;;;5074061;28;20313;-75
2023/09/16 07:00:32;;;;;;;10.00;8.27;;;25.00;1.00;;;;;;5074188;28;20180;-75
2023/09/16 07:02:58;;;;;;;8.85;7.97;;;25.40;1.00;;;;;;5074288;28;20177;-75
2023/09/16 07:05:24;;;;;;;12.38;8.02;;;25.90;99.90;;;;;;5074077;28;20509;-75
2023/09/16 07:07:52;;;;;;;13.30;8.65;;;26.30;98.90;;;;;;5074231;28;20168;-76
2023/09/16 07:10:18;;;;;;;10.43;7.82;;;26.90;99.90;;;;;;5073037;28;20624;-78
2023/09/16 07:12:44;;;;;;;9.68;8.23;;;27.50;1.00;;;;;;5072208;28;20531;-77
2023/09/16 07:15:10;;;;;;;12.32;7.97;;;28.00;56.70;;;;;;5073957;28;20202;-76
2023/09/16 07:17:36;;;;;;;8.60;7.78;;;28.60;1.00;;;;;;5073779;28;20173;-77
2023/09/16 07:20:01;;;;;;;9.68;7.90;;;29.70;1.00;;;;;;5073290;28;20311;-76
2023/09/16 07:22:27;;;;;;;9.68;7.72;;;30.50;99.90;;;;;;5073899;28;20586;-76
2023/09/16 07:24:53;;;;;;;8.65;7.85;;;30.10;99.90;;;;;;5073270;28;20179;-76
2023/09/16 07:27:18;;;;;;;10.85;7.68;;;29.90;99.90;;;;;;5073655;28;20196;-76
2023/09/16 07:29:44;;;;;;;7.88;7.13;;;30.70;99.90;;;;;;5073713;28;20182;-77
2023/09/16 07:32:09;;;;;;;8.18;7.30;;;30.50;99.90;;;;;;5073561;28;20535;-76
2023/09/16 07:34:35;;;;;;;9.13;7.72;;;30.80;11.40;;;;;;5073636;28;20208;-76
2023/09/16 07:37:03;;;;;;;11.65;7.80;;;30.80;1.00;;;;;;5073526;28;20176;-76
2023/09/16 07:39:28;;;;;;;9.02;7.60;;;31.00;1.00;;;;;;5072843;28;20270;-76
2023/09/16 07:41:54;;;;;;;8.65;7.78;;;31.10;1.00;;;;;;5073669;28;20203;-77
2023/09/16 07:44:20;;;;;;;11.05;7.85;;;31.70;1.00;;;;;;5073225;28;20211;-78
2023/09/16 07:46:48;;;;;;;8.38;7.55;;;32.40;1.00;;;;;;5073164;28;20651;-75
2023/09/16 07:49:16;;;;;;;11.65;7.53;;;32.50;1.00;;;;;;5073478;28;20184;-76
2023/09/16 07:51:45;;;;;;;8.43;7.65;;;32.50;1.00;;;;;;5073257;28;20169;-76
2023/09/16 07:54:11;;;;;;;7.95;7.15;;;32.50;1.00;;;;;;5072833;28;20619;-77
2023/09/16 07:56:37;;;;;;;8.90;7.07;;;32.30;1.00;;;;;;5071536;28;20202;-77
2023/09/16 07:59:04;;;;;;;9.50;7.78;;;32.70;1.00;;;;;;5072970;28;20696;-77
2023/09/16 08:01:30;;;;;;;10.70;7.00;;;33.30;99.90;;;;;;5072537;28;20185;-77
2023/09/16 08:03:56;;;;;;;8.20;7.38;;;33.80;99.90;;;;;;5072918;28;20251;-77
2023/09/16 08:06:22;;;;;;;8.35;7.45;;;33.70;99.90;;;;;;5072953;28;20532;-76
2023/09/16 08:08:49;;;;;;;7.97;7.13;;;33.40;99.90;;;;;;5072434;28;20203;-76
2023/09/16 08:11:15;;;;;;;7.53;6.80;;;32.90;99.90;;;;;;5072508;28;20199;-76
2023/09/16 08:13:41;;;;;;;7.70;6.53;;;32.10;1.00;;;;;;5073152;28;20226;-76
2023/09/16 08:16:06;;;;;;;8.43;6.78;;;31.80;1.00;;;;;;5073006;28;20208;-76
2023/09/16 08:18:32;;;;;;;11.05;7.03;;;30.80;16.10;;;;;;5072983;28;20259;-76
2023/09/16 08:21:01;;;;;;;131.18;23.23;;;30.20;1.00;;;;;;5072426;28;20226;-75
2023/09/16 08:23:26;;;;;;;34.72;12.80;;;29.90;65.00;;;;;;5071881;28;20255;-75
2023/09/16 08:25:52;;;;;;;17.00;9.23;;;30.00;95.80;;;;;;5072854;28;20226;-75
2023/09/16 08:28:17;;;;;;;10.70;7.13;;;30.00;99.90;;;;;;5072946;28;20686;-76
2023/09/16 08:30:43;;;;;;;8.88;7.07;;;30.60;1.00;;;;;;5072362;28;20672;-77
2023/09/16 08:33:09;;;;;;;6.97;6.22;;;31.50;99.90;;;;;;5072929;28;20310;-75
2023/09/16 08:35:35;;;;;;;6.82;6.13;;;31.20;99.90;;;;;;5072554;28;20212;-76
2023/09/16 08:38:02;;;;;;;7.90;6.22;;;30.50;1.00;;;;;;5071014;28;20643;-76
2023/09/16 08:40:31;;;;;;;6.30;5.70;;;30.70;1.00;;;;;;5072688;28;20184;-76
2023/09/16 08:43:15;;;;;;;7.72;6.30;;;31.10;99.90;;;;;;5072761;28;20172;-77
2023/09/16 08:45:44;;;;;;;7.65;6.72;;;31.50;99.90;;;;;;5072728;28;20640;-76
2023/09/16 08:48:16;;;;;;;7.15;6.20;;;31.70;1.00;;;;;;5072197;28;20173;-76
2023/09/16 08:50:42;;;;;;;7.68;6.97;;;31.10;99.90;;;;;;5072315;28;20165;-76
2023/09/16 08:53:10;;;;;;;7.97;6.22;;;30.50;1.00;;;;;;5072275;28;20203;-75
2023/09/16 08:55:36;;;;;;;8.80;6.80;;;31.00;99.90;;;;;;5072414;28;20204;-75
2023/09/16 08:58:14;;;;;;;9.85;6.93;;;30.70;1.00;;;;;;5072300;28;20222;-76
2023/09/16 09:00:40;;;;;;;7.72;6.53;;;31.00;1.00;;;;;;5072311;28;20179;-77
2023/09/16 09:03:06;;;;;;;9.00;6.72;;;30.80;1.00;;;;;;5072868;28;20516;-76
2023/09/16 09:05:34;;;;;;;8.05;7.35;;;31.20;99.90;;;;;;5072412;28;20226;-76
2023/09/16 09:07:59;;;;;;;11.15;6.80;;;31.00;99.90;;;;;;5071795;28;20620;-76
2023/09/16 09:10:25;;;;;;;12.48;6.80;;;30.70;1.00;;;;;;5071945;28;20172;-74
2023/09/16 09:12:51;;;;;;;10.80;7.32;;;30.50;1.00;;;;;;5072334;28;20165;-76
2023/09/16 09:15:17;;;;;;;10.00;6.60;;;30.90;1.00;;;;;;5072356;28;20204;-75
2023/09/16 09:17:46;;;;;;;9.30;7.63;;;31.10;1.00;;;;;;5070609;28;20172;-76
2023/09/16 09:20:18;;;;;;;8.20;7.18;;;30.80;1.00;;;;;;5071730;28;20315;-78
2023/09/16 09:22:45;;;;;;;9.45;7.82;;;30.90;1.00;;;;;;5071981;28;20164;-78
2023/09/16 09:25:11;;;;;;;15.13;6.90;;;31.50;1.00;;;;;;5072594;28;20189;-78
2023/09/16 09:27:37;;;;;;;5.07;4.70;;;32.30;1.00;;;;;;5072235;28;20200;-78
2023/09/16 09:30:04;;;;;;;6.18;5.40;;;31.40;32.30;;;;;;5071944;28;20199;-78
2023/09/16 09:32:33;;;;;;;6.38;5.80;;;32.30;1.00;;;;;;5072012;28;20160;-78
2023/09/16 09:35:05;;;;;;;6.28;5.50;;;32.70;1.00;;;;;;5073560;28;20292;-78
2023/09/16 09:37:31;;;;;;;5.50;5.00;;;33.00;1.00;;;;;;5075449;28;20184;-78
2023/09/16 09:40:13;;;;;;;8.50;5.65;;;33.10;1.00;;;;;;5075938;28;20217;-78
2023/09/16 09:42:43;;;;;;;12.80;6.20;;;33.40;1.00;;;;;;5075470;28;20593;-78
2023/09/16 09:45:10;;;;;;;5.80;5.00;;;33.00;1.00;;;;;;5075920;28;20164;-77
2023/09/16 09:47:37;;;;;;;6.75;5.35;;;33.30;1.00;;;;;;5075314;28;20565;-77
2023/09/16 09:50:07;;;;;;;6.72;5.50;;;32.70;1.00;;;;;;5075229;28;20662;-76
2023/09/16 09:52:32;;;;;;;6.40;5.20;;;32.00;17.80;;;;;;5075374;28;20202;-76
2023/09/16 09:54:58;;;;;;;5.65;5.10;;;32.20;90.20;;;;;;5075428;28;20251;-76
2023/09/16 09:57:26;;;;;;;6.30;4.90;;;31.40;9.70;;;;;;5074896;28;20168;-76
2023/09/16 09:59:52;;;;;;;7.00;4.20;;;30.40;67.10;;;;;;5074243;28;20179;-75
2023/09/16 10:02:17;;;;;;;4.57;4.20;;;30.60;99.90;;;;;;5075469;28;20165;-76
2023/09/16 10:04:43;;;;;;;4.70;4.40;;;30.80;1.00;;;;;;5074598;28;20169;-74
2023/09/16 10:07:09;;;;;;;6.60;4.30;;;30.30;18.00;;;;;;5075286;28;20191;-75
2023/09/16 10:09:34;;;;;;;4.70;4.22;;;30.50;99.90;;;;;;5075194;28;20173;-74
2023/09/16 10:12:01;;;;;;;4.13;3.83;;;31.00;1.00;;;;;;5074508;28;20176;-73
2023/09/16 10:14:27;;;;;;;4.90;4.43;;;29.60;99.90;;;;;;5074931;28;20215;-73
2023/09/16 10:16:53;;;;;;;6.15;5.65;;;29.00;99.90;;;;;;5074666;28;20180;-74
2023/09/16 10:19:21;;;;;;;4.78;4.28;;;28.90;1.00;;;;;;5074102;28;20225;-74
2023/09/16 10:21:47;;;;;;;8.02;4.80;;;29.40;1.00;;;;;;5073267;28;20226;-76
2023/09/16 10:24:13;;;;;;;4.65;4.35;;;29.50;1.00;;;;;;5075052;28;20519;-74
2023/09/16 10:26:40;;;;;;;5.10;4.70;;;29.30;1.00;;;;;;5074209;28;20239;-74
2023/09/16 10:29:08;;;;;;;4.38;4.07;;;28.90;1.00;;;;;;5074559;28;20225;-73
2023/09/16 10:31:34;;;;;;;4.35;4.05;;;29.00;99.90;;;;;;5074278;28;20200;-74
2023/09/16 10:34:02;;;;;;;5.03;4.63;;;27.90;99.90;;;;;;5074568;28;20172;-73
2023/09/16 10:36:29;;;;;;;5.47;4.97;;;27.90;1.00;;;;;;5074316;28;20204;-74
2023/09/16 10:38:56;;;;;;;4.70;4.30;;;27.90;1.00;;;;;;5074812;28;20214;-73
2023/09/16 10:41:22;;;;;;;4.82;4.53;;;28.20;99.90;;;;;;5074440;28;20255;-72
2023/09/16 10:43:49;;;;;;;4.93;4.55;;;28.00;92.80;;;;;;5073667;28;20165;-73
2023/09/16 10:46:17;;;;;;;5.25;4.78;;;28.30;99.90;;;;;;5074511;28;20173;-75
2023/09/16 10:48:43;;;;;;;4.97;4.60;;;28.30;99.90;;;;;;5074138;28;20621;-73
2023/09/16 10:51:14;;;;;;;5.57;4.93;;;28.40;99.90;;;;;;5073681;28;20195;-73
2023/09/16 10:53:41;;;;;;;5.35;4.68;;;27.60;1.00;;;;;;5074257;28;20172;-73
2023/09/16 10:56:10;;;;;;;6.00;5.57;;;27.40;99.90;;;;;;5073773;28;20204;-73
2023/09/16 10:58:46;;;;;;;5.72;4.80;;;27.60;99.90;;;;;;5073629;28;20620;-73
2023/09/16 11:01:18;;;;;;;5.70;5.20;;;27.30;99.90;;;;;;5073925;28;20241;-74
2023/09/16 11:03:52;;;;;;;5.32;4.85;;;26.70;1.00;;;;;;5072727;28;20218;-74
2023/09/16 11:06:18;;;;;;;5.50;5.00;;;26.70;1.00;;;;;;5074302;28;20283;-74
2023/09/16 11:08:43;;;;;;;5.95;5.50;;;27.10;1.00;;;;;;5073639;28;20640;-72
2023/09/16 11:11:10;;;;;;;5.55;5.05;;;27.20;1.00;;;;;;5071413;28;20242;-73
2023/09/16 11:13:36;;;;;;;5.53;5.03;;;27.10;1.00;;;;;;5073007;28;20168;-73
2023/09/16 11:16:02;;;;;;;5.88;5.05;;;27.90;99.90;;;;;;5073298;28;20261;-73
2023/09/16 11:18:31;;;;;;;5.55;5.05;;;28.30;99.90;;;;;;5073916;28;20183;-73
2023/09/16 11:20:57;;;;;;;5.63;5.05;;;28.20;16.70;;;;;;5073224;28;20707;-73
2023/09/16 11:23:24;;;;;;;7.28;6.45;;;28.60;70.80;;;;;;5073355;28;20168;-73
2023/09/16 11:25:49;;;;;;;5.10;4.63;;;29.20;1.00;;;;;;5073034;28;20184;-74
2023/09/16 11:28:18;;;;;;;5.60;4.78;;;30.00;99.90;;;;;;5073272;28;20176;-74
2023/09/16 11:30:59;;;;;;;4.95;4.55;;;30.40;1.00;;;;;;5073314;28;20271;-73
2023/09/16 11:33:33;;;;;;;5.10;4.60;;;30.00;1.00;;;;;;5073232;28;20200;-74
2023/09/16 11:36:16;;;;;;;5.57;4.80;;;30.20;1.00;;;;;;5071229;28;20298;-73
2023/09/16 11:39:11;;;;;;;5.07;4.60;;;29.90;36.90;;;;;;5072323;28;20597;-74
2023/09/16 11:41:37;;;;;;;4.88;4.57;;;29.30;1.00;;;;;;5072881;28;20164;-74
2023/09/16 11:44:04;;;;;;;4.88;4.50;;;29.70;1.00;;;;;;5073019;28;20173;-73
2023/09/16 11:46:31;;;;;;;5.43;5.13;;;29.70;99.90;;;;;;5072887;28;20168;-73
2023/09/16 11:49:05;;;;;;;6.10;5.50;;;29.10;99.90;;;;;;5073022;28;20658;-75
2023/09/16 11:51:40;;;;;;;4.68;4.28;;;28.60;1.00;;;;;;5072337;28;20191;-75
2023/09/16 11:54:07;;;;;;;4.82;4.43;;;28.00;81.40;;;;;;5073436;28;20243;-73
2023/09/16 11:56:36;;;;;;;4.78;4.35;;;27.90;99.90;;;;;;5072781;28;20660;-72
2023/09/16 11:59:04;;;;;;;5.38;5.07;;;28.20;99.90;;;;;;5072594;28;20187;-72
2023/09/16 12:01:37;;;;;;;4.90;4.40;;;28.10;99.90;;;;;;5072754;28;20172;-74
2023/09/16 12:04:05;;;;;;;5.40;4.90;;;27.90;99.90;;;;;;5072565;28;20233;-72
2023/09/16 12:06:34;;;;;;;5.18;4.88;;;27.70;1.00;;;;;;5072908;28;20168;-73
2023/09/16 12:09:03;;;;;;;5.30;4.90;;;28.20;99.90;;;;;;5072875;28;20243;-73
2023/09/16 12:11:29;;;;;;;5.20;4.80;;;28.10;99.90;;;;;;5071913;28;20183;-72
2023/09/16 12:13:55;;;;;;;4.97;4.57;;;28.20;99.90;;;;;;5071871;28;20188;-74
2023/09/16 12:16:21;;;;;;;5.68;4.70;;;27.90;99.90;;;;;;5072747;28;20216;-73
2023/09/16 12:18:47;;;;;;;5.70;5.30;;;28.00;1.00;;;;;;5072098;28;20200;-72
2023/09/16 12:21:13;;;;;;;5.22;4.82;;;28.00;99.90;;;;;;5070440;28;20298;-72
2023/09/16 12:23:41;;;;;;;5.80;4.72;;;27.60;1.00;;;;;;5072574;28;20616;-72
2023/09/16 12:26:11;;;;;;;7.20;4.80;;;27.50;1.00;;;;;;5072423;28;20195;-73
2023/09/16 12:28:38;;;;;;;5.25;4.78;;;27.30;1.00;;;;;;5071748;28;20192;-72
2023/09/16 12:31:07;;;;;;;6.13;4.88;;;27.30;1.00;;;;;;5072408;28;20196;-73
2023/09/16 12:33:45;;;;;;;5.70;5.20;;;27.10;1.00;;;;;;5072486;28;20636;-71
2023/09/16 12:36:23;;;;;;;5.82;5.22;;;26.60;1.00;;;;;;5071850;28;20711;-73
2023/09/16 12:38:50;;;;;;;6.65;5.07;;;26.60;1.00;;;;;;5072530;28;20174;-72
2023/09/16 12:41:16;;;;;;;7.72;5.72;;;26.70;1.00;;;;;;5072326;28;20706;-73
2023/09/16 12:43:45;;;;;;;5.95;5.35;;;26.90;1.00;;;;;;5071695;28;20172;-73
2023/09/16 12:46:11;;;;;;;5.80;5.40;;;27.20;1.00;;;;;;5072568;28;20247;-72